createdAt,value
2023-08-19T00:01:28.909Z,4.57
2023-08-19T00:07:01.681Z,6.13
2023-08-19T00:09:48.857Z,7.40
2023-08-19T00:12:42.630Z,4.40
2023-08-19T00:15:30.852Z,4.30
2023-08-19T00:18:24.748Z,6.82
2023-08-19T00:21:11.880Z,4.90
2023-08-19T00:24:05.730Z,4.38
2023-08-19T00:26:52.834Z,6.40
2023-08-19T00:29:46.648Z,4.15
2023-08-19T00:32:33.731Z,5.65
2023-08-19T00:35:27.910Z,4.97
2023-08-19T00:38:15.024Z,4.32
2023-08-19T00:41:08.748Z,4.47
2023-08-19T00:43:55.856Z,5.13
2023-08-19T00:46:49.756Z,9.48
2023-08-19T00:49:37.009Z,5.68
2023-08-19T00:52:30.922Z,7.28
2023-08-19T00:55:18.120Z,10.00
2023-08-19T00:58:11.640Z,7.18
2023-08-19T01:00:59.497Z,4.53
2023-08-19T01:03:52.713Z,4.90
2023-08-19T01:06:53.776Z,9.18
2023-08-19T01:09:52.710Z,7.00
2023-08-19T01:12:52.675Z,6.32
2023-08-19T01:15:41.360Z,7.65
2023-08-19T01:18:35.793Z,3.38
2023-08-19T01:21:23.322Z,5.00
2023-08-19T01:24:17.705Z,6.80
2023-08-19T01:27:04.816Z,6.55
2023-08-19T01:29:58.765Z,6.00
2023-08-19T01:32:46.430Z,11.43
2023-08-19T01:35:40.639Z,8.38
2023-08-19T01:38:31.068Z,6.15
2023-08-19T01:41:25.765Z,6.20
2023-08-19T01:44:13.518Z,9.40
2023-08-19T01:47:07.805Z,8.23
2023-08-19T01:49:54.899Z,7.07
2023-08-19T01:52:51.627Z,6.18
2023-08-19T01:55:38.744Z,8.13
2023-08-19T01:58:32.776Z,5.13
2023-08-19T02:01:19.988Z,8.48
2023-08-19T02:04:13.806Z,11.98
2023-08-19T02:07:07.669Z,7.95
2023-08-19T02:10:01.970Z,6.00
2023-08-19T02:12:49.141Z,10.15
2023-08-19T02:15:42.711Z,9.05
2023-08-19T02:18:29.990Z,6.22
2023-08-19T02:21:23.661Z,5.93
2023-08-19T02:24:17.815Z,6.95
2023-08-19T02:27:04.996Z,9.10
2023-08-19T02:29:58.665Z,9.82
2023-08-19T02:32:45.944Z,8.05
2023-08-19T02:35:39.676Z,10.35
2023-08-19T02:38:26.861Z,7.07
2023-08-19T02:41:21.732Z,7.80
2023-08-19T02:44:09.106Z,8.82
2023-08-19T02:47:02.661Z,10.73
2023-08-19T02:49:49.840Z,8.88
2023-08-19T02:52:43.831Z,8.32
2023-08-19T02:55:30.991Z,8.27
2023-08-19T02:58:24.813Z,9.57
2023-08-19T03:01:12.398Z,6.93
2023-08-19T03:04:05.821Z,8.93
2023-08-19T03:07:12.657Z,7.45
2023-08-19T03:10:06.785Z,8.30
2023-08-19T03:12:54.463Z,7.47
2023-08-19T03:15:48.843Z,6.00
2023-08-19T03:18:36.020Z,7.15
2023-08-19T03:21:29.827Z,8.07
2023-08-19T03:24:16.967Z,9.07
2023-08-19T03:27:10.829Z,8.52
2023-08-19T03:29:58.119Z,10.35
2023-08-19T03:32:51.818Z,14.10
2023-08-19T03:35:39.066Z,8.32
2023-08-19T03:38:32.672Z,8.55
2023-08-19T03:41:20.020Z,9.00
2023-08-19T03:44:13.824Z,8.93
2023-08-19T03:47:01.131Z,8.73
2023-08-19T03:49:54.682Z,10.88
2023-08-19T03:52:48.679Z,10.48
2023-08-19T03:55:42.701Z,8.80
2023-08-19T03:58:36.718Z,8.10
2023-08-19T04:01:36.872Z,9.95
2023-08-19T04:04:24.102Z,11.82
2023-08-19T04:07:23.825Z,10.25
2023-08-19T04:10:10.986Z,8.15
2023-08-19T04:13:04.702Z,8.57
2023-08-19T04:15:52.139Z,9.05
2023-08-19T04:18:45.829Z,10.20
2023-08-19T04:21:33.005Z,13.00
2023-08-19T04:24:26.731Z,9.07
2023-08-19T04:27:13.822Z,9.63
2023-08-19T04:30:07.725Z,9.80
2023-08-19T04:32:54.955Z,7.50
2023-08-19T04:35:54.978Z,7.05
2023-08-19T04:38:42.106Z,9.90
2023-08-19T04:41:35.739Z,7.45
2023-08-19T04:44:22.956Z,6.30
2023-08-19T04:47:16.844Z,7.82
2023-08-19T04:50:03.940Z,11.27
2023-08-19T04:52:57.729Z,9.35
2023-08-19T04:55:44.828Z,6.10
2023-08-19T04:58:38.730Z,8.45
2023-08-19T05:01:25.897Z,6.90
2023-08-19T05:04:19.961Z,10.18
2023-08-19T05:07:13.856Z,8.63
2023-08-19T05:10:14.908Z,8.00
2023-08-19T05:13:02.000Z,5.95
2023-08-19T05:15:55.898Z,12.07
2023-08-19T05:18:43.281Z,8.45
2023-08-19T05:21:36.808Z,7.28
2023-08-19T05:24:24.028Z,8.13
2023-08-19T05:27:17.768Z,5.32
2023-08-19T05:30:04.858Z,8.85
2023-08-19T05:32:58.945Z,7.15
2023-08-19T05:35:46.084Z,5.18
2023-08-19T05:38:41.727Z,8.35
2023-08-19T05:41:28.895Z,8.45
2023-08-19T05:44:22.897Z,5.20
2023-08-19T05:47:09.985Z,9.77
2023-08-19T05:50:03.738Z,5.60
2023-08-19T05:52:57.741Z,7.82
2023-08-19T05:55:51.722Z,5.85
2023-08-19T05:58:45.753Z,4.78
2023-08-19T06:01:39.957Z,4.97
2023-08-19T06:04:27.193Z,8.02
2023-08-19T06:07:28.074Z,5.47
2023-08-19T06:10:15.441Z,4.55
2023-08-19T06:13:08.813Z,7.95
2023-08-19T06:15:56.011Z,4.47
2023-08-19T06:18:50.236Z,9.50
2023-08-19T06:21:37.365Z,7.38
2023-08-19T06:24:32.282Z,9.55
2023-08-19T06:27:25.747Z,5.30
2023-08-19T06:30:13.761Z,6.70
2023-08-19T06:33:07.789Z,5.55
2023-08-19T06:35:58.497Z,6.00
2023-08-19T06:38:56.756Z,5.30
2023-08-19T06:41:44.302Z,5.10
2023-08-19T06:44:38.884Z,5.68
2023-08-19T06:47:26.471Z,5.57
2023-08-19T06:50:19.760Z,7.43
2023-08-19T06:53:07.192Z,6.05
2023-08-19T06:56:00.912Z,6.28
2023-08-19T06:58:50.495Z,7.30
2023-08-19T07:02:02.915Z,5.63
2023-08-19T07:04:50.468Z,5.25
2023-08-19T07:07:50.755Z,9.90
2023-08-19T07:10:42.558Z,5.68
2023-08-19T07:13:37.045Z,5.25
2023-08-19T07:16:25.638Z,6.90
2023-08-19T07:19:19.970Z,5.93
2023-08-19T07:22:07.213Z,7.80
2023-08-19T07:25:00.784Z,5.30
2023-08-19T07:27:48.490Z,5.30
2023-08-19T07:30:42.883Z,6.10
2023-08-19T07:33:30.181Z,5.75
2023-08-19T07:36:23.961Z,7.38
2023-08-19T07:39:11.385Z,5.90
2023-08-19T07:42:10.765Z,8.68
2023-08-19T07:47:52.042Z,5.75
2023-08-19T07:50:46.039Z,7.18
2023-08-19T07:53:33.292Z,5.93
2023-08-19T07:56:30.991Z,5.13
2023-08-19T07:59:18.159Z,4.63
2023-08-19T08:02:11.872Z,5.22
2023-08-19T08:04:59.214Z,6.75
2023-08-19T08:08:00.131Z,7.63
2023-08-19T08:10:47.556Z,7.93
2023-08-19T08:13:41.168Z,5.85
2023-08-19T08:16:28.344Z,7.28
2023-08-19T08:19:21.856Z,8.65
2023-08-19T08:22:09.136Z,6.53
2023-08-19T08:25:03.013Z,8.43
2023-08-19T08:27:50.295Z,8.43
2023-08-19T08:30:44.084Z,6.93
2023-08-19T08:33:31.291Z,6.85
2023-08-19T08:36:24.955Z,5.55
2023-08-19T08:39:12.310Z,9.18
2023-08-19T08:42:07.294Z,10.35
2023-08-19T08:44:54.650Z,15.27
2023-08-19T08:47:49.304Z,5.40
2023-08-19T08:50:36.987Z,6.25
2023-08-19T08:53:30.932Z,6.10
2023-08-19T08:56:18.512Z,6.50
2023-08-19T08:59:12.067Z,7.97
2023-08-19T09:01:59.576Z,8.52
2023-08-19T09:04:54.001Z,8.93
2023-08-19T09:07:55.819Z,6.32
2023-08-19T09:10:50.981Z,8.82
2023-08-19T09:13:49.842Z,9.15
2023-08-19T09:16:44.017Z,6.85
2023-08-19T09:19:31.209Z,7.82
2023-08-19T09:22:24.916Z,6.20
2023-08-19T09:25:18.993Z,11.63
2023-08-19T09:28:06.452Z,10.32
2023-08-19T09:31:02.834Z,7.53
2023-08-19T09:34:03.926Z,7.93
2023-08-19T09:36:52.090Z,10.55
2023-08-19T09:39:45.976Z,5.97
2023-08-19T09:42:33.665Z,7.15
2023-08-19T09:45:28.133Z,5.95
2023-08-19T09:48:15.885Z,7.63
2023-08-19T09:51:12.948Z,5.77
2023-08-19T09:54:00.707Z,5.28
2023-08-19T09:56:55.049Z,4.95
2023-08-19T09:59:42.355Z,9.38
2023-08-19T10:02:38.082Z,4.55
2023-08-19T10:05:25.374Z,6.75
2023-08-19T10:08:29.240Z,6.20
2023-08-19T10:11:16.501Z,8.68
2023-08-19T10:14:12.945Z,7.70
2023-08-19T10:17:09.807Z,10.40
2023-08-19T10:20:17.225Z,9.07
2023-08-19T10:23:06.620Z,8.90
2023-08-19T10:26:00.948Z,8.70
2023-08-19T10:28:55.845Z,8.35
2023-08-19T10:31:48.518Z,6.90
2023-08-19T10:34:47.948Z,7.63
2023-08-19T10:37:35.134Z,7.20
2023-08-19T10:40:36.154Z,5.72
2023-08-19T10:43:23.273Z,7.22
2023-08-19T10:46:24.246Z,4.93
2023-08-19T10:49:11.360Z,6.93
2023-08-19T10:52:21.945Z,8.77
2023-08-19T10:55:09.113Z,6.68
2023-08-19T10:58:02.973Z,4.85
2023-08-19T11:00:53.098Z,7.53
2023-08-19T11:03:46.989Z,7.20
2023-08-19T11:06:40.873Z,8.00
2023-08-19T11:09:40.966Z,8.02
2023-08-19T11:12:35.203Z,7.05
2023-08-19T11:15:22.761Z,7.85
2023-08-19T11:18:17.022Z,8.60
2023-08-19T11:21:04.662Z,5.22
2023-08-19T11:23:57.906Z,8.63
2023-08-19T11:26:45.418Z,11.23
2023-08-19T11:29:38.870Z,6.20
2023-08-19T11:32:26.582Z,6.03
2023-08-19T11:35:19.859Z,6.23
2023-08-19T11:38:07.201Z,6.30
2023-08-19T11:41:01.008Z,8.57
2023-08-19T11:43:48.283Z,7.80
2023-08-19T11:46:42.013Z,6.50
2023-08-19T11:49:30.505Z,6.82
2023-08-19T11:52:23.893Z,7.65
2023-08-19T11:55:29.888Z,5.70
2023-08-19T11:58:23.878Z,6.43
2023-08-19T12:01:14.393Z,6.18
2023-08-19T12:04:11.914Z,14.20
2023-08-19T12:07:13.071Z,6.32
2023-08-19T12:10:08.632Z,6.82
2023-08-19T12:13:03.052Z,6.20
2023-08-19T12:15:50.757Z,8.55
2023-08-19T12:18:45.022Z,9.97
2023-08-19T12:21:32.101Z,9.43
2023-08-19T12:24:26.261Z,4.72
2023-08-19T12:27:13.477Z,5.72
2023-08-19T12:30:07.069Z,7.40
2023-08-19T12:32:54.370Z,9.55
2023-08-19T12:35:48.006Z,4.75
2023-08-19T12:38:43.096Z,5.93
2023-08-19T12:41:30.379Z,7.65
2023-08-19T12:44:24.179Z,6.78
2023-08-19T12:47:11.514Z,6.55
2023-08-19T12:50:04.995Z,6.22
2023-08-19T12:52:52.281Z,9.30
2023-08-19T12:55:46.097Z,6.88
2023-08-19T12:58:33.309Z,6.10
2023-08-19T13:01:27.152Z,6.05
2023-08-19T13:04:14.339Z,5.78
2023-08-19T13:07:15.007Z,8.90
2023-08-19T13:10:08.888Z,4.97
2023-08-19T13:13:03.133Z,8.65
2023-08-19T13:15:56.459Z,6.28
2023-08-19T13:18:50.242Z,5.85
2023-08-19T13:21:37.355Z,5.28
2023-08-19T13:24:31.006Z,7.72
2023-08-19T13:27:18.082Z,8.50
2023-08-19T13:30:12.056Z,10.15
2023-08-19T13:32:59.392Z,7.13
2023-08-19T13:35:53.036Z,6.53
2023-08-19T13:38:40.362Z,5.70
2023-08-19T13:41:34.284Z,5.35
2023-08-19T13:44:21.528Z,9.90
2023-08-19T13:47:15.105Z,6.47
2023-08-19T13:50:02.214Z,4.78
2023-08-19T13:53:05.097Z,8.70
2023-08-19T13:55:52.192Z,8.35
2023-08-19T13:58:45.990Z,7.25
2023-08-19T14:01:33.081Z,8.55
2023-08-19T14:04:27.035Z,5.13
2023-08-19T14:07:34.217Z,5.40
2023-08-19T14:10:28.225Z,6.20
2023-08-19T14:13:15.313Z,7.95
2023-08-19T14:16:09.186Z,8.60
2023-08-19T14:18:56.339Z,5.35
2023-08-19T14:21:50.182Z,4.95
2023-08-19T14:24:37.318Z,8.35
2023-08-19T14:27:31.047Z,6.43
2023-08-19T14:30:18.123Z,5.28
2023-08-19T14:33:12.206Z,7.20
2023-08-19T14:35:59.624Z,7.88
2023-08-19T14:38:53.080Z,7.50
2023-08-19T14:41:40.180Z,7.45
2023-08-19T14:44:34.089Z,8.25
2023-08-19T14:47:21.434Z,5.57
2023-08-19T14:50:15.154Z,7.53
2023-08-19T14:53:02.264Z,9.77
2023-08-19T14:55:56.109Z,9.00
2023-08-19T14:58:50.032Z,6.65
2023-08-19T15:01:37.281Z,8.95
2023-08-19T15:04:31.074Z,6.65
2023-08-19T15:07:24.938Z,6.30
2023-08-19T15:10:19.002Z,11.00
2023-08-19T15:13:06.807Z,9.82
2023-08-19T15:16:01.035Z,10.97
2023-08-19T15:18:48.352Z,6.18
2023-08-19T15:21:41.966Z,6.95
2023-08-19T15:24:29.724Z,6.47
2023-08-19T15:27:23.113Z,6.73
2023-08-19T15:30:10.386Z,7.00
2023-08-19T15:33:04.145Z,6.22
2023-08-19T15:35:51.509Z,7.88
2023-08-19T15:38:44.987Z,6.88
2023-08-19T15:41:33.443Z,10.20
2023-08-19T15:47:14.599Z,6.97
2023-08-19T15:50:08.113Z,6.10
2023-08-19T15:52:55.463Z,7.93
2023-08-19T15:55:49.003Z,12.95
2023-08-19T15:58:38.042Z,13.57
2023-08-19T16:01:33.205Z,9.90
2023-08-19T16:04:20.566Z,7.80
2023-08-19T16:07:14.145Z,9.48
2023-08-19T16:10:08.165Z,8.05
2023-08-19T16:13:03.044Z,9.40
2023-08-19T16:15:51.504Z,7.22
2023-08-19T16:18:45.988Z,6.38
2023-08-19T16:21:33.377Z,10.75
2023-08-19T16:24:27.989Z,7.38
2023-08-19T16:27:15.209Z,10.13
2023-08-19T16:30:09.074Z,8.73
2023-08-19T16:32:56.336Z,6.13
2023-08-19T16:35:50.180Z,11.20
2023-08-19T16:38:37.585Z,8.68
2023-08-19T16:41:31.003Z,7.10
2023-08-19T16:44:18.319Z,6.47
2023-08-19T16:47:12.138Z,10.13
2023-08-19T16:49:59.405Z,7.07
2023-08-19T16:52:53.005Z,8.20
2023-08-19T16:55:47.097Z,10.43
2023-08-19T16:58:41.000Z,7.82
2023-08-19T17:01:29.152Z,6.22
2023-08-19T17:04:23.137Z,11.98
2023-08-19T17:07:10.558Z,10.15
2023-08-19T17:10:11.041Z,8.45
2023-08-19T17:12:58.396Z,7.70
2023-08-19T17:15:52.805Z,7.82
2023-08-19T17:18:40.041Z,10.48
2023-08-19T17:21:34.017Z,9.38
2023-08-19T17:24:21.485Z,6.95
2023-08-19T17:27:15.152Z,10.57
2023-08-19T17:30:02.426Z,8.55
2023-08-19T17:32:56.190Z,8.70
2023-08-19T17:35:43.847Z,9.43
2023-08-19T17:38:37.466Z,13.23
2023-08-19T17:41:24.872Z,8.30
2023-08-19T17:44:18.797Z,8.55
2023-08-19T17:47:06.151Z,8.52
2023-08-19T17:50:00.046Z,11.25
2023-08-19T17:52:47.338Z,10.07
2023-08-19T17:55:41.041Z,11.57
2023-08-19T17:58:28.376Z,11.25
2023-08-19T18:01:22.056Z,7.82
2023-08-19T18:04:09.423Z,9.88
2023-08-19T18:07:03.096Z,8.57
2023-08-19T18:09:57.225Z,9.38
2023-08-19T18:12:51.181Z,10.30
2023-08-19T18:15:45.606Z,9.75
2023-08-19T18:18:39.066Z,13.82
2023-08-19T18:21:26.587Z,16.02
2023-08-19T18:24:20.039Z,10.05
2023-08-19T18:27:07.277Z,11.82
2023-08-19T18:30:01.172Z,8.57
2023-08-19T18:32:48.581Z,7.65
2023-08-19T18:35:42.200Z,10.07
2023-08-19T18:38:29.606Z,10.85
2023-08-19T18:41:23.064Z,7.53
2023-08-19T18:44:10.610Z,10.07
2023-08-19T18:47:04.198Z,11.25
2023-08-19T18:49:51.588Z,10.90
2023-08-19T18:52:45.180Z,12.32
2023-08-19T18:55:32.515Z,10.98
2023-08-19T18:58:26.409Z,13.68
2023-08-19T19:01:13.744Z,9.98
2023-08-19T19:04:07.061Z,9.38
2023-08-19T19:06:54.282Z,11.98
2023-08-19T19:09:55.310Z,10.20
2023-08-19T19:12:42.552Z,9.98
2023-08-19T19:15:36.559Z,12.73
2023-08-19T19:18:24.204Z,9.32
2023-08-19T19:21:18.212Z,12.82
2023-08-19T19:24:05.525Z,11.60
2023-08-19T19:26:59.232Z,9.15
2023-08-19T19:29:46.587Z,10.63
2023-08-19T19:32:40.290Z,17.38
2023-08-19T19:35:28.380Z,8.85
2023-08-19T19:38:22.060Z,15.00
2023-08-19T19:41:09.408Z,10.50
2023-08-19T19:44:03.089Z,14.13
2023-08-19T19:46:50.521Z,12.38
2023-08-19T19:49:44.220Z,12.38
2023-08-19T19:52:31.464Z,9.15
2023-08-19T19:55:25.335Z,13.20
2023-08-19T19:58:19.338Z,10.18
2023-08-19T20:01:06.544Z,7.57
2023-08-19T20:04:00.392Z,9.13
2023-08-19T20:06:47.504Z,11.30
2023-08-19T20:09:48.318Z,8.07
2023-08-19T20:12:35.457Z,10.93
2023-08-19T20:15:36.267Z,11.48
2023-08-19T20:18:23.448Z,10.70
2023-08-19T20:21:17.404Z,9.00
2023-08-19T20:24:04.563Z,12.27
2023-08-19T20:26:58.354Z,11.27
2023-08-19T20:29:45.631Z,8.48
2023-08-19T20:32:39.214Z,12.02
2023-08-19T20:35:34.082Z,11.25
2023-08-19T20:38:28.179Z,11.25
2023-08-19T20:41:15.280Z,11.10
2023-08-19T20:44:09.390Z,8.80
2023-08-19T20:46:56.689Z,10.90
2023-08-19T20:49:50.441Z,12.15
2023-08-19T20:52:37.535Z,13.65
2023-08-19T20:55:31.171Z,10.48
2023-08-19T20:58:18.258Z,12.68
2023-08-19T21:01:12.336Z,12.00
2023-08-19T21:03:59.453Z,11.10
2023-08-19T21:06:53.370Z,12.07
2023-08-19T21:10:00.200Z,10.80
2023-08-19T21:12:54.362Z,10.85
2023-08-19T21:15:41.470Z,9.43
2023-08-19T21:18:35.228Z,9.93
2023-08-19T21:21:22.415Z,8.93
2023-08-19T21:24:16.350Z,10.77
2023-08-19T21:27:03.444Z,11.38
2023-08-19T21:29:57.208Z,11.40
2023-08-19T21:32:44.500Z,17.13
2023-08-19T21:35:38.355Z,11.43
2023-08-19T21:38:25.442Z,15.43
2023-08-19T21:41:23.415Z,16.05
2023-08-19T21:44:10.511Z,12.20
2023-08-19T21:47:04.231Z,14.70
2023-08-19T21:49:51.353Z,15.02
2023-08-19T21:52:45.211Z,14.23
2023-08-19T21:55:32.300Z,11.40
2023-08-19T21:58:26.251Z,12.70
2023-08-19T22:01:16.941Z,11.95
2023-08-19T22:04:10.525Z,16.55
2023-08-19T22:06:57.815Z,12.85
2023-08-19T22:10:01.364Z,12.82
2023-08-19T22:12:48.873Z,10.23
2023-08-19T22:15:42.386Z,12.20
2023-08-19T22:18:29.940Z,12.15
2023-08-19T22:21:23.306Z,13.60
2023-08-19T22:24:17.254Z,10.40
2023-08-19T22:27:11.278Z,13.80
2023-08-19T22:29:58.465Z,15.68
2023-08-19T22:32:52.463Z,14.88
2023-08-19T22:35:39.867Z,13.32
2023-08-19T22:38:33.494Z,15.98
2023-08-19T22:41:20.643Z,12.10
2023-08-19T22:44:14.360Z,14.20
2023-08-19T22:47:01.755Z,13.20
2023-08-19T22:49:55.339Z,11.05
2023-08-19T22:52:49.307Z,12.13
2023-08-19T22:55:43.201Z,10.63
2023-08-19T22:58:37.308Z,11.65
2023-08-19T23:01:31.167Z,17.13
2023-08-19T23:04:18.523Z,16.40
2023-08-19T23:07:12.305Z,13.02
2023-08-19T23:10:06.288Z,12.57
2023-08-19T23:13:00.287Z,15.20
2023-08-19T23:15:55.249Z,18.15
2023-08-19T23:18:29.320Z,15.15
2023-08-19T23:20:57.008Z,15.73
2023-08-19T23:23:30.157Z,13.48
2023-08-19T23:25:57.480Z,15.40
2023-08-19T23:28:31.317Z,18.92
2023-08-19T23:30:58.780Z,13.80
2023-08-19T23:36:00.294Z,16.92
2023-08-19T23:38:27.597Z,12.95
2023-08-19T23:43:28.511Z,17.63
2023-08-19T23:45:55.693Z,11.93
2023-08-19T23:48:29.355Z,11.95
2023-08-19T23:51:00.410Z,16.30
2023-08-19T23:53:34.432Z,12.02
2023-08-19T23:56:01.808Z,13.68
2023-08-19T23:58:29.148Z,14.95
